Ellakkal, India

2:19 PM IST on December 11, 2016 (GMT +0530)
Cochin International | | Change Station

Elev 26 ft 10.15 °N, 76.40 °E | Updated 19 minutes ago

Mostly Cloudy
Mostly Cloudy
88 °F
Feels Like 93 °F
N
9
Wind Variable Wind from West

Today
High -- | Low -- °F
--% Chance of Precip.
Yesterday
High -- | Low -- °F
Precip. -- in
Pressure 29.74 in
Visibility 3.1 miles
Clouds Few 1500 ft
Scattered Clouds 2500 ft
Heat Index 93 °F
Dew Point 70 °F
Humidity 55%
Rainfall 0.00 in
Snow Depth Not available.
6:28 AM 6:01 PM
Waxing Gibbous, 90% visible
METAR VOCI 110830Z 27008KT 5000 HZ FEW015 SCT025 31/21 Q1007 NOSIG
Pressure 29.74 in
Visibility 3.1 miles
Clouds Few 1500 ft
Scattered Clouds 2500 ft
Heat Index 93 °F
Dew Point 70 °F
Humidity 55%
Rainfall 0.00 in
Snow Depth Not available.
6:28 AM 6:01 PM
Waxing Gibbous, 90% visible
METAR VOCI 110830Z 27008KT 5000 HZ FEW015 SCT025 31/21 Q1007 NOSIG

10-Day Weather Forecast

No radar image for this location.
×

Almanac

Astronomy

Dec. 11, 2016 Rise Set
Actual Time
Civil Twilight
Nautical Twilight
Astronomical Twilight
Moon
Length of Visible Light
Length of Day
Tomorrow will be .
, % of the Moon is Illuminated

Today's Extremes

Country Highs Country Lows

Community

WunderPhotos

Upload Photos

1,956,705 photos uploaded!

WunderBlog® & News

Nearby

Air Quality

  Air Quality AQ Index Pollutant
Not available.

Snow Depth

Station Depth Elevation

Earthquake Activity

City Distance Mag. Time & Date
Minimum magnitude displayed is 2.5.

Coastal Water Temperatures

Place Temperature

Stations

Nearby Weather Stations

Station Location Temp. Windchill Dew Point Humidity Wind Precip. Elev Updated Type